sensor_id;sensor_type;location;lat;lon;timestamp;P1;durP1;ratioP1;P2;durP2;ratioP2
16626;SDS011;8427;52.204;7.202;2024-02-28T20:21:26;49.78;;;16.83;;
16626;SDS011;8427;52.204;7.202;2024-02-28T20:24:37;50.50;;;16.08;;
16626;SDS011;8427;52.204;7.202;2024-02-28T20:27:47;48.03;;;16.00;;
16626;SDS011;8427;52.204;7.202;2024-02-28T20:30:57;51.50;;;16.02;;
16626;SDS011;8427;52.204;7.202;2024-02-28T20:37:17;47.80;;;15.40;;
16626;SDS011;8427;52.204;7.202;2024-02-28T20:40:29;52.65;;;16.38;;
16626;SDS011;8427;52.204;7.202;2024-02-28T20:43:38;52.90;;;16.17;;
16626;SDS011;8427;52.204;7.202;2024-02-28T20:46:47;51.50;;;17.42;;
16626;SDS011;8427;52.204;7.202;2024-02-28T20:49:57;60.90;;;17.92;;
16626;SDS011;8427;52.204;7.202;2024-02-28T20:53:07;50.28;;;16.73;;
16626;SDS011;8427;52.204;7.202;2024-02-28T20:56:16;49.25;;;16.08;;
16626;SDS011;8427;52.204;7.202;2024-02-28T20:59:26;49.72;;;16.42;;
16626;SDS011;8427;52.204;7.202;2024-02-28T21:02:40;60.63;;;17.65;;
16626;SDS011;8427;52.204;7.202;2024-02-28T21:05:50;57.80;;;17.77;;
16626;SDS011;8427;52.204;7.202;2024-02-28T21:09:01;54.63;;;17.58;;
16626;SDS011;8427;52.204;7.202;2024-02-28T21:12:10;57.78;;;17.30;;
16626;SDS011;8427;52.204;7.202;2024-02-28T21:15:21;55.75;;;16.73;;
16626;SDS011;8427;52.204;7.202;2024-02-28T21:18:30;55.13;;;15.70;;
16626;SDS011;8427;52.204;7.202;2024-02-28T21:21:40;51.45;;;15.52;;
16626;SDS011;8427;52.204;7.202;2024-02-28T21:27:59;49.60;;;14.57;;
16626;SDS011;8427;52.204;7.202;2024-02-28T21:31:09;47.05;;;15.18;;
16626;SDS011;8427;52.204;7.202;2024-02-28T21:34:18;50.70;;;15.13;;
16626;SDS011;8427;52.204;7.202;2024-02-28T21:40:38;46.00;;;14.30;;
16626;SDS011;8427;52.204;7.202;2024-02-28T21:43:48;45.42;;;15.55;;
16626;SDS011;8427;52.204;7.202;2024-02-28T21:46:57;50.00;;;14.45;;
16626;SDS011;8427;52.204;7.202;2024-02-28T21:50:08;51.78;;;16.25;;
16626;SDS011;8427;52.204;7.202;2024-02-28T21:53:18;50.33;;;15.90;;
16626;SDS011;8427;52.204;7.202;2024-02-28T21:56:29;50.03;;;14.75;;
16626;SDS011;8427;52.204;7.202;2024-02-28T21:59:38;51.72;;;15.40;;
16626;SDS011;8427;52.204;7.202;2024-02-28T22:02:47;51.33;;;15.40;;
16626;SDS011;8427;52.204;7.202;2024-02-28T22:09:06;52.60;;;14.75;;
16626;SDS011;8427;52.204;7.202;2024-02-28T22:12:16;48.40;;;14.65;;
16626;SDS011;8427;52.204;7.202;2024-02-28T22:15:25;49.22;;;14.75;;
16626;SDS011;8427;52.204;7.202;2024-02-28T22:18:35;56.35;;;16.73;;
16626;SDS011;8427;52.204;7.202;2024-02-28T22:21:44;49.15;;;15.27;;
16626;SDS011;8427;52.204;7.202;2024-02-28T22:24:54;47.90;;;15.13;;
16626;SDS011;8427;52.204;7.202;2024-02-28T22:31:14;49.05;;;14.60;;
16626;SDS011;8427;52.204;7.202;2024-02-28T22:34:23;50.72;;;15.18;;
16626;SDS011;8427;52.204;7.202;2024-02-28T22:37:33;46.15;;;14.35;;
16626;SDS011;8427;52.204;7.202;2024-02-28T22:40:42;46.22;;;14.32;;
16626;SDS011;8427;52.204;7.202;2024-02-28T22:43:53;54.97;;;15.57;;
16626;SDS011;8427;52.204;7.202;2024-02-28T22:47:02;47.70;;;14.50;;
16626;SDS011;8427;52.204;7.202;2024-02-28T22:50:12;53.75;;;15.30;;
16626;SDS011;8427;52.204;7.202;2024-02-28T22:53:21;50.95;;;14.65;;
16626;SDS011;8427;52.204;7.202;2024-02-28T22:59:41;52.72;;;14.38;;
16626;SDS011;8427;52.204;7.202;2024-02-28T23:02:50;48.45;;;14.38;;
16626;SDS011;8427;52.204;7.202;2024-02-28T23:09:08;50.25;;;13.73;;
16626;SDS011;8427;52.204;7.202;2024-02-28T23:15:28;44.58;;;13.05;;
16626;SDS011;8427;52.204;7.202;2024-02-28T23:18:37;47.22;;;13.73;;
16626;SDS011;8427;52.204;7.202;2024-02-28T23:21:47;51.60;;;14.52;;
16626;SDS011;8427;52.204;7.202;2024-02-28T23:28:05;48.03;;;13.20;;
16626;SDS011;8427;52.204;7.202;2024-02-28T23:31:17;50.75;;;14.60;;
16626;SDS011;8427;52.204;7.202;2024-02-28T23:34:28;45.67;;;13.63;;
16626;SDS011;8427;52.204;7.202;2024-02-28T23:37:38;47.05;;;13.57;;
16626;SDS011;8427;52.204;7.202;2024-02-28T23:40:48;49.67;;;13.02;;
16626;SDS011;8427;52.204;7.202;2024-02-28T23:47:08;51.45;;;13.82;;
16626;SDS011;8427;52.204;7.202;2024-02-28T23:50:17;45.05;;;13.77;;
16626;SDS011;8427;52.204;7.202;2024-02-28T23:53:26;48.53;;;12.50;;
16626;SDS011;8427;52.204;7.202;2024-02-28T23:56:36;44.03;;;13.73;;
